Time;durP1;ratioP1;P1;durP2;ratioP2;P2;SDS_P1;SDS_P2;PMS_P1;PMS_P2;Temp;Humidity;BMP_temperature;BMP_pressure;BME280_temperature;BME280_humidity;BME280_pressure;Samples;Min_cycle;Max_cycle;Signal;HPM_P1;HPM_P2
2023/02/28 06:01:01;;;;;;;;;33.75;26.25;;;;;1.30;53.67;102550.13;5652315;23;45734;-48
2023/02/28 06:03:26;;;;;;;;;35.50;31.50;;;;;1.29;53.66;102549.25;4945459;28;46707;-46
2023/02/28 06:05:52;;;;;;;;;31.50;29.00;;;;;1.29;54.29;102546.63;4949425;28;62323;-48
2023/02/28 06:08:18;;;;;;;;;36.00;28.00;;;;;1.27;54.65;102544.84;4936162;28;45440;-46
2023/02/28 06:10:43;;;;;;;;;43.75;34.75;;;;;1.26;53.93;102553.56;4939297;28;46334;-46
2023/02/28 06:13:09;;;;;;;;;22.25;13.75;;;;;1.26;54.35;102556.16;4938804;28;45343;-46
2023/02/28 06:15:34;;;;;;;;;34.25;33.00;;;;;1.22;54.86;102551.75;4936506;28;45409;-46
2023/02/28 06:18:00;;;;;;;;;38.50;36.25;;;;;1.21;54.32;102557.84;4944116;28;45326;-46
2023/02/28 06:20:29;;;;;;;;;38.50;30.25;;;;;1.20;54.45;102551.72;4938335;28;45449;-45
2023/02/28 06:22:58;;;;;;;;;37.25;31.00;;;;;1.21;54.21;102552.59;4936015;28;46049;-44
2023/02/28 06:25:24;;;;;;;;;36.25;34.25;;;;;1.18;55.24;102549.94;4931385;28;45356;-46
2023/02/28 06:27:50;;;;;;;;;39.75;35.50;;;;;1.18;54.89;102549.94;4932505;28;45396;-48
2023/02/28 06:30:15;;;;;;;;;37.00;34.50;;;;;1.15;55.03;102556.00;4937966;28;45420;-44
2023/02/28 06:32:41;;;;;;;;;35.25;31.50;;;;;1.13;54.90;102555.97;4927763;28;47290;-46
2023/02/28 06:35:07;;;;;;;;;36.75;33.75;;;;;1.14;55.40;102557.72;4937732;28;45552;-45
2023/02/28 06:37:32;;;;;;;;;39.25;34.75;;;;;1.21;55.21;102565.69;4950520;28;45396;-46
2023/02/28 06:39:58;;;;;;;;;31.00;30.50;;;;;1.18;55.96;102563.91;4944522;28;52342;-45
2023/02/28 06:42:28;;;;;;;;;39.50;32.25;;;;;1.15;55.44;102569.97;4945596;28;46072;-45
2023/02/28 06:44:57;;;;;;;;;37.75;34.75;;;;;1.16;55.46;102570.84;4946325;28;45495;-44
2023/02/28 06:47:24;;;;;;;;;37.75;32.75;;;;;1.18;54.77;102566.53;4946843;28;45637;-45
2023/02/28 06:49:50;;;;;;;;;37.50;34.00;;;;;1.18;55.92;102563.91;4942964;28;45386;-45
2023/02/28 06:52:16;;;;;;;;;46.00;41.00;;;;;1.17;55.83;102563.88;4942812;28;45591;-48
2023/02/28 06:54:41;;;;;;;;;44.75;38.25;;;;;1.18;57.04;102561.28;4941818;28;45834;-44
2023/02/28 06:57:06;;;;;;;;;42.75;36.00;;;;;1.20;56.38;102564.81;4945920;28;45429;-46
2023/02/28 06:59:32;;;;;;;;;39.25;35.00;;;;;1.18;55.03;102558.66;4942124;28;60266;-46
2023/02/28 07:01:57;;;;;;;;;54.50;40.00;;;;;1.19;56.53;102557.81;4940260;28;45479;-44
2023/02/28 07:04:23;;;;;;;;;50.50;41.00;;;;;1.23;56.50;102564.88;4939059;28;45470;-46
2023/02/28 07:06:48;;;;;;;;;31.75;29.75;;;;;1.24;55.96;102561.41;4942044;28;45343;-45
2023/02/28 07:09:13;;;;;;;;;48.25;39.50;;;;;1.25;56.77;102565.78;4931713;28;45430;-47
2023/02/28 07:11:40;;;;;;;;;41.50;34.75;;;;;1.25;57.53;102562.25;4929625;28;53424;-46
2023/02/28 07:14:05;;;;;;;;;45.25;35.75;;;;;1.30;56.63;102569.38;4925160;28;45550;-46
2023/02/28 07:16:31;;;;;;;;;37.75;34.00;;;;;1.34;57.45;102566.78;4940218;28;45384;-47
2023/02/28 07:18:56;;;;;;;;;38.75;27.25;;;;;1.36;56.71;102560.72;4930901;28;56529;-46
2023/02/28 07:21:22;;;;;;;;;32.00;27.50;;;;;1.39;56.96;102562.50;4930737;28;63648;-46
2023/02/28 07:23:47;;;;;;;;;47.50;38.75;;;;;1.43;56.95;102561.69;4930611;28;45319;-47
2023/02/28 07:26:15;;;;;;;;;53.50;41.00;;;;;1.47;56.04;102567.03;4929526;28;45397;-48
2023/02/28 07:28:42;;;;;;;;;41.50;37.50;;;;;1.50;56.00;102566.19;4942160;28;45532;-46
2023/02/28 07:31:08;;;;;;;;;40.75;35.00;;;;;1.57;56.71;102568.03;4939239;28;47065;-50
2023/02/28 07:33:34;;;;;;;;;46.25;36.50;;;;;1.61;56.04;102568.97;4930894;28;45442;-50
2023/02/28 07:36:20;;;;;;;;;40.25;35.50;;;;;1.64;55.80;102569.91;4923628;28;45386;-47
2023/02/28 07:38:50;;;;;;;;;37.50;35.50;;;;;1.72;55.70;102577.00;4927920;28;45402;-49
2023/02/28 07:41:17;;;;;;;;;45.00;34.50;;;;;1.72;56.25;102577.91;4931048;28;46165;-47
2023/02/28 07:43:44;;;;;;;;;46.00;41.25;;;;;1.77;55.01;102573.59;4934200;28;45359;-48
2023/02/28 07:46:12;;;;;;;;;37.00;31.00;;;;;1.79;56.17;102579.75;4938482;28;45429;-48
2023/02/28 07:48:38;;;;;;;;;40.00;32.50;;;;;1.85;55.65;102589.44;4929255;28;45643;-46
2023/02/28 07:51:03;;;;;;;;;54.00;42.00;;;;;1.88;55.44;102584.25;4936407;28;46025;-47
2023/02/28 07:53:29;;;;;;;;;42.75;38.25;;;;;1.93;55.84;102585.19;4939677;28;45557;-47
2023/02/28 07:55:56;;;;;;;;;45.25;36.00;;;;;2.01;55.81;102589.66;4933492;28;45509;-46
2023/02/28 07:58:22;;;;;;;;;46.50;41.75;;;;;2.04;55.32;102584.47;4950695;28;45579;-48
2023/02/28 08:00:47;;;;;;;;;45.00;38.50;;;;;2.03;55.77;102586.19;4948821;28;45655;-46
2023/02/28 08:03:13;;;;;;;;;43.50;38.25;;;;;2.07;55.42;102585.38;4945151;28;64617;-47
2023/02/28 08:05:41;;;;;;;;;51.50;40.75;;;;;2.10;55.97;102590.69;4928590;28;45284;-48
2023/02/28 08:08:07;;;;;;;;;35.25;30.25;;;;;2.16;55.82;102589.88;4945636;28;45239;-47
2023/02/28 08:10:33;;;;;;;;;42.00;37.00;;;;;2.18;55.41;102595.16;4935431;28;45528;-46
2023/02/28 08:12:58;;;;;;;;;48.00;39.25;;;;;2.21;55.63;102587.34;4935395;28;60866;-46
2023/02/28 08:15:24;;;;;;;;;45.50;39.75;;;;;2.24;55.65;102593.50;4935401;28;58447;-47
2023/02/28 08:17:49;;;;;;;;;53.25;39.00;;;;;2.25;55.28;102587.38;4933223;28;45510;-48
2023/02/28 08:20:14;;;;;;;;;35.00;30.50;;;;;2.31;55.26;102589.22;4925899;28;55826;-48
2023/02/28 08:22:41;;;;;;;;;46.00;40.25;;;;;2.34;54.90;102588.38;4944847;28;63233;-49
2023/02/28 08:25:07;;;;;;;;;43.00;40.00;;;;;2.39;54.98;102597.19;4934298;28;45448;-48
2023/02/28 08:27:32;;;;;;;;;44.50;40.75;;;;;2.45;54.86;102592.91;4938623;28;45535;-47
2023/02/28 08:29:57;;;;;;;;;41.50;36.25;;;;;2.51;55.19;102591.22;4938340;28;61584;-48
2023/02/28 08:32:23;;;;;;;;;26.00;24.50;;;;;2.57;54.99;102584.28;4932154;28;46009;-51
2023/02/28 08:34:48;;;;;;;;;40.75;33.25;;;;;2.64;54.74;102598.38;4935464;28;45461;-48
2023/02/28 08:37:14;;;;;;;;;40.25;35.75;;;;;2.65;54.38;102590.50;4940883;28;45594;-48
2023/02/28 08:39:39;;;;;;;;;57.00;35.00;;;;;2.72;54.08;102601.97;4939195;28;46308;-46
2023/02/28 08:42:05;;;;;;;;;41.25;38.50;;;;;2.77;54.23;102600.25;4933459;28;45394;-46
2023/02/28 08:44:30;;;;;;;;;38.00;37.75;;;;;2.85;54.13;102602.09;4928580;28;45380;-46
2023/02/28 08:46:55;;;;;;;;;42.50;38.25;;;;;2.89;54.09;102598.66;4945629;28;47303;-49
2023/02/28 08:49:21;;;;;;;;;38.25;34.25;;;;;2.93;53.61;102601.34;4930653;28;61021;-46
2023/02/28 08:51:46;;;;;;;;;43.75;37.50;;;;;2.95;53.36;102599.59;4948641;28;45599;-46
2023/02/28 08:54:12;;;;;;;;;41.50;36.25;;;;;3.01;53.39;102600.53;4926174;28;45379;-46
2023/02/28 08:56:38;;;;;;;;;53.75;38.25;;;;;3.08;53.26;102597.97;4946022;28;45413;-48
2023/02/28 08:59:03;;;;;;;;;40.25;38.00;;;;;3.19;53.08;102600.69;4939458;28;46264;-47
2023/02/28 09:01:29;;;;;;;;;41.00;34.00;;;;;3.24;53.03;102603.38;4936499;28;45453;-47
2023/02/28 09:03:56;;;;;;;;;41.25;36.25;;;;;3.29;52.60;102594.66;4939244;28;45668;-48
2023/02/28 09:06:23;;;;;;;;;31.50;26.00;;;;;3.33;52.81;102594.69;4932273;28;45642;-50
2023/02/28 09:08:49;;;;;;;;;42.50;35.75;;;;;3.38;52.55;102598.25;4923014;28;46403;-47
2023/02/28 09:11:15;;;;;;;;;35.25;32.00;;;;;3.44;52.38;102599.19;4938836;28;45457;-47
2023/02/28 09:13:41;;;;;;;;;43.50;37.75;;;;;3.53;52.15;102608.00;4934695;28;45540;-48
2023/02/28 09:16:10;;;;;;;;;25.00;25.00;;;;;3.59;51.87;102602.81;4935354;28;45317;-46
2023/02/28 09:18:37;;;;;;;;;35.25;31.75;;;;;3.64;51.82;102598.47;4935749;28;45781;-47
2023/02/28 09:21:04;;;;;;;;;34.75;32.00;;;;;3.72;51.68;102606.41;4935665;28;45511;-47
2023/02/28 09:23:29;;;;;;;;;34.50;29.25;;;;;3.76;51.75;102595.03;4933015;28;45362;-47
2023/02/28 09:25:55;;;;;;;;;37.50;31.00;;;;;3.81;50.96;102599.44;4916535;28;63147;-47
2023/02/28 09:28:21;;;;;;;;;38.75;33.00;;;;;3.87;51.09;102603.91;4926094;28;46986;-46
2023/02/28 09:30:48;;;;;;;;;32.75;29.00;;;;;3.96;51.06;102597.78;4935958;28;45577;-47
2023/02/28 09:33:14;;;;;;;;;37.00;30.75;;;;;4.03;50.54;102599.59;4927413;28;45473;-47
2023/02/28 09:35:40;;;;;;;;;32.00;31.00;;;;;4.17;50.94;102604.06;4928814;28;45437;-48
2023/02/28 09:38:07;;;;;;;;;34.50;30.25;;;;;5.32;51.87;102592.09;4925177;28;45951;-47
2023/02/28 09:40:52;;;;;;;;;41.25;30.50;;;;;7.75;47.10;102598.09;4930215;28;45426;-47
2023/02/28 09:43:20;;;;;;;;;37.00;28.25;;;;;10.31;44.09;102595.25;4930422;28;45486;-50
2023/02/28 09:45:58;;;;;;;;;28.25;28.25;;;;;12.31;41.38;102587.75;4926593;28;45453;-49
2023/02/28 09:48:29;;;;;;;;;29.75;27.00;;;;;14.02;35.61;102574.19;4931817;28;46299;-47
2023/02/28 09:51:10;;;;;;;;;27.50;27.50;;;;;15.61;37.81;102569.72;4924982;28;45287;-47
2023/02/28 09:53:39;;;;;;;;;30.75;29.00;;;;;16.82;36.50;102569.66;4929829;28;45433;-48
2023/02/28 09:56:08;;;;;;;;;33.00;31.75;;;;;17.84;36.12;102567.22;4927197;28;45414;-48
2023/02/28 09:58:40;;;;;;;;;36.25;33.00;;;;;19.04;33.18;102567.84;4925418;28;45394;-47
2023/02/28 10:01:12;;;;;;;;;27.33;26.00;;;;;19.76;32.84;102548.31;4928065;28;45456;-49
2023/02/28 10:03:56;;;;;;;;;18.67;18.67;;;;;20.70;32.53;102553.22;4929200;28;45454;-50
2023/02/28 10:06:23;;;;;;;;;27.33;23.00;;;;;21.45;29.67;102546.44;4935537;28;45570;-47
2023/02/28 10:09:04;;;;;;;;;26.00;26.00;;;;;21.93;28.98;102557.56;4921741;28;46140;-47
2023/02/28 10:11:32;;;;;;;;;27.67;23.00;;;;;22.48;28.85;102549.16;4937307;28;45385;-46
2023/02/28 10:14:04;;;;;;;;;27.67;25.67;;;;;23.21;28.76;102552.78;4928770;28;45454;-44
2023/02/28 10:16:51;;;;;;;;;28.33;28.33;;;;;23.79;25.85;102543.78;4922766;28;45567;-46
2023/02/28 10:19:32;;;;;;;;;26.67;25.67;;;;;23.96;26.66;102545.19;4926829;28;46470;-47
2023/02/28 10:21:58;;;;;;;;;22.00;21.67;;;;;23.92;24.61;102539.16;4923829;28;45349;-46
2023/02/28 10:24:30;;;;;;;;;21.00;21.00;;;;;24.14;24.72;102540.13;4940313;28;45540;-46
2023/02/28 10:27:00;;;;;;;;;25.33;24.00;;;;;24.36;23.36;102536.53;4924629;28;45377;-47
2023/02/28 10:29:27;;;;;;;;;21.00;21.00;;;;;24.50;23.36;102539.97;4931753;28;46638;-47
2023/02/28 10:31:52;;;;;;;;;22.00;20.33;;;;;24.78;22.16;102530.41;4924567;28;45465;-46
2023/02/28 10:34:18;;;;;;;;;20.67;20.33;;;;;25.25;20.67;102525.50;4923065;28;51773;-47
2023/02/28 10:36:44;;;;;;;;;19.00;19.00;;;;;25.69;21.89;102513.63;4927478;28;45452;-45
2023/02/28 10:39:34;;;;;;;;;22.33;22.33;;;;;24.54;20.88;102511.53;4922726;28;62902;-48
2023/02/28 10:41:59;;;;;;;;;19.67;19.00;;;;;22.95;20.93;102527.59;4924817;28;45401;-46
2023/02/28 10:44:25;;;;;;;;;19.67;19.67;;;;;23.34;22.30;102512.00;4924615;28;55569;-45
2023/02/28 10:46:51;;;;;;;;;18.67;16.00;;;;;24.36;22.02;102508.47;4926994;28;45593;-48
2023/02/28 10:49:28;;;;;;;;;22.33;20.00;;;;;25.52;21.25;102504.22;4940132;28;47005;-48
2023/02/28 10:52:00;;;;;;;;;19.33;18.67;;;;;26.24;20.14;102503.28;4926222;28;45365;-45
2023/02/28 10:54:33;;;;;;;;;14.67;14.67;;;;;26.77;18.17;102505.84;4927063;28;47164;-45
2023/02/28 10:57:17;;;;;;;;;20.33;16.67;;;;;26.79;18.87;102493.78;4931214;28;45470;-47
2023/02/28 10:59:43;;;;;;;;;21.33;17.00;;;;;26.61;18.04;102490.84;4927527;28;47203;-48
2023/02/28 11:02:29;;;;;;;;;14.00;13.67;;;;;26.33;18.08;102487.91;4924680;28;45653;-49
2023/02/28 11:04:55;;;;;;;;;8.33;7.67;;;;;26.15;16.42;102489.59;4926965;28;45398;-45
2023/02/28 11:07:23;;;;;;;;;14.67;14.33;;;;;25.90;17.78;102495.38;4923380;28;45500;-50
2023/02/28 11:09:50;;;;;;;;;15.33;15.33;;;;;25.39;17.41;102482.63;4921238;28;46395;-48
2023/02/28 11:12:23;;;;;;;;;12.67;12.33;;;;;25.54;18.35;102486.75;4928940;28;45303;-50
2023/02/28 11:14:55;;;;;;;;;12.00;9.67;;;;;25.36;18.35;102486.50;4926616;28;45362;-49
2023/02/28 11:17:26;;;;;;;;;12.67;12.67;;;;;25.47;16.83;102488.25;4929152;28;45614;-46
2023/02/28 11:19:54;;;;;;;;;9.67;9.67;;;;;25.30;16.32;102486.13;4940620;28;47086;-49
2023/02/28 11:22:22;;;;;;;;;15.33;12.67;;;;;25.66;16.50;102479.34;4931757;28;45461;-49
2023/02/28 11:24:51;;;;;;;;;15.00;14.67;;;;;25.62;17.14;102475.19;4924664;28;45445;-49
2023/02/28 11:27:33;;;;;;;;;15.67;15.67;;;;;24.47;17.90;102472.25;4929530;28;45581;-49
2023/02/28 11:29:59;;;;;;;;;14.33;13.67;;;;;23.57;18.36;102477.59;4926844;28;46523;-50
2023/02/28 11:32:30;;;;;;;;;23.00;20.67;;;;;21.72;17.89;102476.00;4929334;28;45419;-50
2023/02/28 11:35:26;;;;;;;;;12.67;12.67;;;;;19.59;18.97;102471.94;4928160;28;45370;-48
2023/02/28 11:37:52;;;;;;;;;16.33;15.00;;;;;18.13;20.34;102490.31;4932067;28;45421;-51
2023/02/28 11:40:43;;;;;;;;;15.00;15.00;;;;;18.28;20.62;102469.72;4930380;28;46289;-52
2023/02/28 11:43:37;;;;;;;;;17.00;15.00;;;;;17.80;20.44;102480.41;4938176;28;45485;-50
2023/02/28 11:46:25;;;;;;;;;15.00;14.67;;;;;16.80;21.42;102469.44;4948766;28;45492;-52
2023/02/28 11:49:06;;;;;;;;;11.67;11.67;;;;;17.44;21.22;102459.03;4927417;28;45569;-48
2023/02/28 11:51:35;;;;;;;;;14.00;14.00;;;;;16.31;21.78;102464.63;4931117;28;46291;-50
2023/02/28 11:54:10;;;;;;;;;17.00;17.00;;;;;15.70;22.85;102456.66;4926088;28;45482;-49
2023/02/28 11:56:41;;;;;;;;;18.33;17.00;;;;;16.69;22.57;102448.47;4930350;28;45536;-52
2023/02/28 11:59:18;;;;;;;;;17.33;16.00;;;;;18.64;22.35;102452.41;4935504;28;45630;-50
2023/02/28 12:02:14;;;;;;;;;16.67;15.00;;;;;20.44;20.71;102441.38;4927201;28;45474;-49
2023/02/28 12:04:59;;;;;;;;;16.67;13.67;;;;;22.29;20.23;102425.81;4948601;28;45468;-48
2023/02/28 12:07:36;;;;;;;;;16.00;16.00;;;;;22.52;19.03;102425.94;4926636;28;45445;-48
2023/02/28 12:10:22;;;;;;;;;15.67;15.00;;;;;21.94;18.27;102439.22;4925052;28;45449;-50
2023/02/28 12:13:06;;;;;;;;;16.33;13.33;;;;;20.67;18.76;102434.47;4942455;28;46281;-48
2023/02/28 12:15:38;;;;;;;;;12.67;12.67;;;;;18.63;18.84;102436.31;4936554;28;45422;-49
2023/02/28 12:18:09;;;;;;;;;14.67;13.33;;;;;16.90;20.48;102446.56;4940000;28;45191;-46
2023/02/28 12:20:59;;;;;;;;;13.00;10.33;;;;;16.12;20.96;102424.41;4932281;28;45444;-48
2023/02/28 12:23:46;;;;;;;;;13.67;12.00;;;;;15.53;22.28;102427.94;4931372;28;45339;-48
2023/02/28 12:26:30;;;;;;;;;12.67;12.67;;;;;15.45;22.19;102426.53;4923667;28;45564;-49
2023/02/28 12:29:08;;;;;;;;;11.00;11.00;;;;;14.67;22.03;102405.75;4929161;28;45354;-48
2023/02/28 12:31:36;;;;;;;;;14.33;13.67;;;;;15.99;22.44;102400.81;4925692;28;45373;-47
2023/02/28 12:34:14;;;;;;;;;14.00;12.67;;;;;17.74;21.50;102396.44;4927162;28;46168;-48
2023/02/28 12:36:41;;;;;;;;;12.00;12.00;;;;;17.89;21.68;102387.53;4926845;28;45388;-50
2023/02/28 12:39:15;;;;;;;;;13.00;13.00;;;;;18.74;20.61;102389.91;4924612;28;61085;-50
2023/02/28 12:41:54;;;;;;;;;14.00;14.00;;;;;19.81;20.28;102384.22;4929887;28;45376;-48
2023/02/28 12:44:27;;;;;;;;;15.67;14.00;;;;;20.66;18.85;102382.25;4925010;28;45381;-47
2023/02/28 12:46:58;;;;;;;;;13.33;12.00;;;;;20.04;19.17;102371.06;4928540;28;45432;-47
2023/02/28 12:49:31;;;;;;;;;16.33;16.33;;;;;18.16;19.67;102365.38;4926718;28;45438;-49
2023/02/28 12:51:59;;;;;;;;;15.67;14.00;;;;;17.24;20.77;102371.34;4911981;28;45351;-50
2023/02/28 12:54:34;;;;;;;;;19.67;15.33;;;;;17.68;20.20;102377.00;4937155;28;45891;-47
2023/02/28 12:57:08;;;;;;;;;16.00;14.67;;;;;17.93;20.27;102372.97;4928076;28;45763;-50
2023/02/28 12:59:39;;;;;;;;;13.00;11.67;;;;;17.73;20.14;102375.88;4946269;28;45502;-47
2023/02/28 13:02:22;;;;;;;;;15.00;15.00;;;;;17.20;20.58;102374.19;4930387;28;45444;-48
2023/02/28 13:04:56;;;;;;;;;14.67;14.00;;;;;16.69;20.91;102366.06;4930969;28;46134;-47
2023/02/28 13:07:55;;;;;;;;;14.67;14.00;;;;;16.17;21.72;102360.63;4920460;28;45751;-50
2023/02/28 13:10:20;;;;;;;;;15.67;15.00;;;;;15.86;22.12;102359.41;4931149;28;45489;-50
2023/02/28 13:12:51;;;;;;;;;13.67;13.33;;;;;15.35;22.59;102359.91;4939208;28;45734;-48
2023/02/28 13:15:28;;;;;;;;;17.00;16.00;;;;;14.61;22.69;102356.91;4938859;28;45486;-48
2023/02/28 13:17:56;;;;;;;;;19.00;17.67;;;;;13.70;23.57;102358.75;4937893;28;45489;-46
2023/02/28 13:20:24;;;;;;;;;13.33;13.00;;;;;12.98;24.07;102355.09;4923107;28;45463;-44
2023/02/28 13:22:53;;;;;;;;;16.00;15.00;;;;;12.50;24.93;102351.44;4938812;28;45755;-48
2023/02/28 13:25:33;;;;;;;;;15.33;15.33;;;;;11.94;25.20;102352.28;4939153;28;46262;-48
2023/02/28 13:28:05;;;;;;;;;19.00;18.33;;;;;11.77;25.56;102354.59;4938298;28;45638;-50
2023/02/28 13:30:50;;;;;;;;;17.33;15.67;;;;;11.78;26.03;102361.69;4937966;28;45343;-47
2023/02/28 13:33:31;;;;;;;;;16.00;14.00;;;;;11.98;25.87;102350.44;4939572;28;45627;-46
2023/02/28 13:36:15;;;;;;;;;15.67;15.67;;;;;12.10;25.58;102346.50;4937329;28;46231;-45
2023/02/28 13:38:45;;;;;;;;;18.00;16.33;;;;;12.09;25.56;102342.97;4949200;28;45635;-48
2023/02/28 13:41:28;;;;;;;;;17.00;15.33;;;;;11.91;25.68;102349.72;4934963;28;45579;-50
2023/02/28 13:44:12;;;;;;;;;13.33;13.33;;;;;11.69;25.82;102354.84;4933292;28;45630;-47
2023/02/28 13:46:49;;;;;;;;;14.00;13.33;;;;;11.39;25.68;102349.50;4929546;28;45505;-48
2023/02/28 13:49:28;;;;;;;;;15.33;11.33;;;;;11.15;25.90;102359.94;4931246;28;45363;-46
2023/02/28 13:52:14;;;;;;;;;13.67;10.67;;;;;10.90;25.98;102347.28;4931784;28;45552;-47
2023/02/28 13:54:48;;;;;;;;;14.67;14.67;;;;;10.61;26.44;102347.16;4931247;28;45450;-47
2023/02/28 13:57:38;;;;;;;;;13.67;13.67;;;;;10.39;26.63;102345.03;4933261;28;45467;-47
2023/02/28 14:00:24;;;;;;;;;16.00;16.00;;;;;10.32;26.83;102346.09;4931705;28;45544;-47
2023/02/28 14:03:05;;;;;;;;;12.67;11.67;;;;;10.31;27.25;102344.31;4942820;28;45619;-45
2023/02/28 14:05:33;;;;;;;;;14.67;14.67;;;;;10.27;27.46;102347.06;4929638;28;45760;-48
2023/02/28 14:08:07;;;;;;;;;14.33;13.33;;;;;10.26;27.33;102337.34;4933277;28;47131;-46
2023/02/28 14:10:43;;;;;;;;;17.00;14.00;;;;;10.20;27.27;102345.47;4936880;28;45402;-46
2023/02/28 14:13:44;;;;;;;;;13.67;13.67;;;;;9.98;27.13;102341.56;4927358;28;45334;-49
2023/02/28 14:16:11;;;;;;;;;15.00;13.67;;;;;9.68;27.30;102344.00;4921668;28;45445;-45
2023/02/28 14:18:41;;;;;;;;;15.00;13.33;;;;;9.34;27.98;102342.91;4935045;28;45614;-45
2023/02/28 14:21:26;;;;;;;;;13.67;13.67;;;;;9.26;28.16;102343.06;4937155;28;45609;-45
2023/02/28 14:24:07;;;;;;;;;10.33;10.33;;;;;9.50;28.04;102335.50;4933716;28;45343;-46
2023/02/28 14:27:11;;;;;;;;;12.67;12.33;;;;;9.84;28.39;102344.53;4933027;28;45387;-47
2023/02/28 14:30:10;;;;;;;;;15.00;13.33;;;;;9.91;27.89;102341.69;4928553;28;45488;-47
2023/02/28 14:32:58;;;;;;;;;24.00;18.67;;;;;9.69;27.79;102336.00;4938216;28;45450;-49
2023/02/28 14:35:42;;;;;;;;;23.67;17.00;;;;;9.57;27.96;102333.63;4935878;28;45547;-51
2023/02/28 14:38:19;;;;;;;;;17.00;15.00;;;;;9.48;27.88;102336.44;4929513;28;45680;-49
2023/02/28 14:40:45;;;;;;;;;14.00;12.00;;;;;9.35;27.91;102346.47;4935839;28;46553;-47
2023/02/28 14:43:23;;;;;;;;;15.00;15.00;;;;;9.29;28.27;102341.28;4930874;28;61854;-48
2023/02/28 14:45:51;;;;;;;;;14.33;14.33;;;;;9.33;28.16;102334.97;4929978;28;45743;-46
2023/02/28 14:48:17;;;;;;;;;15.00;12.00;;;;;9.43;28.50;102337.41;4940811;28;45279;-46
2023/02/28 14:50:49;;;;;;;;;18.67;13.67;;;;;9.49;28.29;102335.53;4940270;28;49495;-48
2023/02/28 14:53:18;;;;;;;;;18.33;13.67;;;;;9.51;28.50;102329.28;4938835;28;45510;-47
2023/02/28 14:55:45;;;;;;;;;12.67;12.67;;;;;9.43;28.29;102334.75;4947090;28;45345;-46
2023/02/28 14:58:40;;;;;;;;;14.67;13.00;;;;;9.26;28.35;102337.75;4939447;28;45493;-46
2023/02/28 15:01:07;;;;;;;;;12.33;12.33;;;;;9.01;28.61;102337.38;4943765;28;62176;-48
2023/02/28 15:03:35;;;;;;;;;20.33;15.67;;;;;8.74;28.69;102336.09;4947548;28;45360;-48
2023/02/28 15:06:03;;;;;;;;;13.33;13.33;;;;;8.63;29.07;102338.06;4938500;28;45450;-46
2023/02/28 15:08:29;;;;;;;;;16.00;12.33;;;;;8.64;29.03;102338.03;4950490;28;45451;-46
2023/02/28 15:11:01;;;;;;;;;17.67;14.33;;;;;8.83;29.28;102335.06;4951302;28;45467;-48
2023/02/28 15:13:36;;;;;;;;;13.67;13.00;;;;;9.00;29.13;102337.41;4940760;28;45489;-46
2023/02/28 15:16:04;;;;;;;;;14.00;13.00;;;;;9.08;29.02;102330.16;4934343;28;45398;-48
2023/02/28 15:18:47;;;;;;;;;19.75;17.50;;;;;9.03;29.04;102332.88;4940251;28;45514;-49
2023/02/28 15:21:17;;;;;;;;;23.75;17.25;;;;;8.99;29.09;102336.50;4933748;28;46285;-47
2023/02/28 15:23:47;;;;;;;;;12.75;12.75;;;;;8.90;28.99;102336.69;4943741;28;45451;-48
2023/02/28 15:26:16;;;;;;;;;10.00;9.50;;;;;8.76;29.09;102332.53;4932478;28;45765;-46
2023/02/28 15:28:41;;;;;;;;;21.25;17.25;;;;;8.61;28.85;102338.09;4949642;28;45386;-47
2023/02/28 15:31:24;;;;;;;;;19.33;15.67;;;;;8.53;29.18;102338.22;4938539;28;63595;-49
2023/02/28 15:33:57;;;;;;;;;22.50;17.50;;;;;8.57;29.10;102336.41;4940833;28;45485;-46
2023/02/28 15:36:29;;;;;;;;;18.75;15.50;;;;;8.58;28.96;102340.81;4934390;28;45452;-47
2023/02/28 15:38:55;;;;;;;;;16.50;13.00;;;;;8.63;29.42;102335.41;4930031;28;45624;-47
2023/02/28 15:41:37;;;;;;;;;17.33;14.00;;;;;8.70;29.51;102329.97;4948259;28;47062;-49
2023/02/28 15:44:26;;;;;;;;;18.67;13.33;;;;;8.76;29.53;102337.81;4936546;28;45449;-49
2023/02/28 15:47:19;;;;;;;;;23.25;20.00;;;;;8.75;29.53;102335.22;4943272;28;45379;-49
2023/02/28 15:50:12;;;;;;;;;16.50;14.50;;;;;8.60;30.12;102337.22;4956531;28;45732;-47
2023/02/28 15:52:40;;;;;;;;;17.25;16.75;;;;;8.57;29.63;102344.34;4921534;28;47429;-47
2023/02/28 15:55:24;;;;;;;;;22.25;14.25;;;;;8.46;29.70;102341.00;4929992;28;45363;-46
2023/02/28 15:57:53;;;;;;;;;18.75;16.00;;;;;8.45;29.91;102340.09;4934725;28;45349;-46
2023/02/28 16:00:22;;;;;;;;;13.75;11.75;;;;;8.38;29.84;102341.97;4935588;28;45413;-46
2023/02/28 16:02:47;;;;;;;;;14.75;14.75;;;;;8.29;29.88;102334.16;4932021;28;46173;-47
2023/02/28 16:05:34;;;;;;;;;10.75;10.75;;;;;8.19;30.23;102337.88;4936853;28;45480;-48
2023/02/28 16:08:06;;;;;;;;;18.25;13.00;;;;;8.16;29.85;102340.56;4927245;28;45559;-49
2023/02/28 16:10:32;;;;;;;;;17.67;15.00;;;;;8.07;29.93;102339.81;4927804;28;45558;-47
2023/02/28 16:12:57;;;;;;;;;13.00;12.50;;;;;7.98;30.15;102337.28;4926367;28;47056;-46
2023/02/28 16:15:25;;;;;;;;;32.00;26.00;;;;;7.91;30.14;102344.47;4943614;28;45401;-46
2023/02/28 16:17:51;;;;;;;;;20.25;17.00;;;;;7.90;30.45;102352.41;4925191;28;45442;-47
2023/02/28 16:20:30;;;;;;;;;11.50;10.50;;;;;7.93;30.08;102347.94;4929666;28;45556;-47
2023/02/28 16:22:56;;;;;;;;;18.00;15.75;;;;;7.94;29.96;102346.19;4924242;28;45390;-46
2023/02/28 16:25:29;;;;;;;;;15.33;14.00;;;;;7.94;30.02;102341.75;4935123;28;45546;-47
2023/02/28 16:27:57;;;;;;;;;14.00;12.25;;;;;7.97;29.72;102350.56;4934878;28;45553;-48
2023/02/28 16:30:25;;;;;;;;;15.25;12.00;;;;;7.92;30.06;102348.84;4937282;28;45509;-49
2023/02/28 16:32:51;;;;;;;;;20.25;16.25;;;;;7.96;30.05;102344.38;4943921;28;46432;-46
2023/02/28 16:35:17;;;;;;;;;14.75;13.00;;;;;7.99;29.68;102354.06;4927513;28;45411;-49
2023/02/28 16:37:43;;;;;;;;;13.00;11.67;;;;;7.96;30.32;102354.97;4939788;28;45382;-48
2023/02/28 16:40:17;;;;;;;;;13.00;12.75;;;;;7.92;30.28;102355.94;4932559;28;45445;-48
2023/02/28 16:42:45;;;;;;;;;14.00;11.67;;;;;7.87;30.45;102358.63;4953685;28;46477;-49
2023/02/28 16:45:16;;;;;;;;;15.33;14.67;;;;;7.82;30.39;102352.50;4934993;28;48357;-47
2023/02/28 16:47:41;;;;;;;;;17.00;15.50;;;;;7.73;30.37;102366.78;4943579;28;45411;-47
2023/02/28 16:50:33;;;;;;;;;19.25;15.50;;;;;7.69;30.48;102358.88;4930596;28;53803;-48
2023/02/28 16:52:58;;;;;;;;;15.75;14.00;;;;;7.60;30.16;102359.88;4932875;28;45465;-48
2023/02/28 16:55:26;;;;;;;;;13.50;13.50;;;;;7.46;30.88;102365.34;4936446;28;64177;-47
2023/02/28 16:57:56;;;;;;;;;15.50;13.50;;;;;7.32;30.62;102370.81;4932523;28;45414;-47
2023/02/28 17:00:23;;;;;;;;;17.00;16.00;;;;;7.19;31.41;102369.19;4940181;28;45427;-48
2023/02/28 17:02:48;;;;;;;;;14.50;14.00;;;;;7.05;30.91;102367.56;4938438;28;45512;-46
2023/02/28 17:05:14;;;;;;;;;20.00;16.75;;;;;6.95;31.29;102368.56;4940748;28;69535;-49
2023/02/28 17:07:42;;;;;;;;;15.25;10.75;;;;;6.87;31.66;102367.72;4934107;28;45232;-47
2023/02/28 17:10:21;;;;;;;;;15.25;13.75;;;;;6.75;31.92;102369.63;4936439;28;45936;-48
2023/02/28 17:12:46;;;;;;;;;21.00;17.50;;;;;6.62;31.92;102368.84;4930114;28;47289;-47
2023/02/28 17:15:13;;;;;;;;;20.00;14.50;;;;;6.53;32.06;102370.69;4938614;28;45553;-49
2023/02/28 17:17:39;;;;;;;;;18.75;16.75;;;;;6.46;32.42;102381.28;4939952;28;45482;-48
2023/02/28 17:20:06;;;;;;;;;15.75;12.50;;;;;6.39;32.41;102384.03;4933307;28;45370;-45
2023/02/28 17:22:32;;;;;;;;;19.00;16.00;;;;;6.35;32.14;102383.16;4927139;28;46236;-49
2023/02/28 17:24:58;;;;;;;;;16.50;16.50;;;;;6.30;32.62;102384.97;4932654;28;45847;-49
2023/02/28 17:27:24;;;;;;;;;16.75;13.00;;;;;6.26;32.57;102393.81;4927874;28;45367;-48
2023/02/28 17:29:49;;;;;;;;;15.25;14.00;;;;;6.18;32.75;102390.31;4932608;28;45385;-47
2023/02/28 17:32:15;;;;;;;;;13.50;13.50;;;;;6.13;32.69;102398.28;4927665;28;46065;-50
2023/02/28 17:34:40;;;;;;;;;20.50;16.25;;;;;6.12;32.82;102393.88;4932820;28;45755;-46